sensor_id;sensor_type;location;lat;lon;timestamp;P1;durP1;ratioP1;P2;durP2;ratioP2
37715;SDS011;23562;50.540;12.504;2023-04-15T00:02:44;6.57;;;4.15;;
37715;SDS011;23562;50.540;12.504;2023-04-15T00:18:10;5.75;;;4.63;;
37715;SDS011;23562;50.540;12.504;2023-04-15T00:21:14;6.10;;;4.97;;
37715;SDS011;23562;50.540;12.504;2023-04-15T00:23:39;5.75;;;4.70;;
37715;SDS011;23562;50.540;12.504;2023-04-15T00:26:05;6.63;;;5.00;;
37715;SDS011;23562;50.540;12.504;2023-04-15T00:28:30;5.45;;;4.53;;
37715;SDS011;23562;50.540;12.504;2023-04-15T00:30:56;6.38;;;4.65;;
37715;SDS011;23562;50.540;12.504;2023-04-15T00:33:21;6.28;;;5.03;;
37715;SDS011;23562;50.540;12.504;2023-04-15T00:35:46;8.20;;;5.80;;
37715;SDS011;23562;50.540;12.504;2023-04-15T00:38:11;6.90;;;5.22;;
37715;SDS011;23562;50.540;12.504;2023-04-15T00:40:37;6.78;;;4.95;;
37715;SDS011;23562;50.540;12.504;2023-04-15T00:43:02;6.28;;;5.10;;
37715;SDS011;23562;50.540;12.504;2023-04-15T00:45:28;7.32;;;5.45;;
37715;SDS011;23562;50.540;12.504;2023-04-15T00:47:53;7.25;;;5.03;;
37715;SDS011;23562;50.540;12.504;2023-04-15T00:50:19;6.70;;;5.15;;
37715;SDS011;23562;50.540;12.504;2023-04-15T00:52:45;5.97;;;4.93;;
37715;SDS011;23562;50.540;12.504;2023-04-15T00:55:10;6.28;;;5.07;;
37715;SDS011;23562;50.540;12.504;2023-04-15T00:57:35;6.35;;;5.30;;
37715;SDS011;23562;50.540;12.504;2023-04-15T01:00:00;7.65;;;5.53;;
37715;SDS011;23562;50.540;12.504;2023-04-15T01:02:26;6.35;;;5.20;;
37715;SDS011;23562;50.540;12.504;2023-04-15T01:04:51;6.45;;;5.30;;
37715;SDS011;23562;50.540;12.504;2023-04-15T01:07:17;6.87;;;5.53;;
37715;SDS011;23562;50.540;12.504;2023-04-15T01:09:42;6.72;;;5.30;;
37715;SDS011;23562;50.540;12.504;2023-04-15T01:12:09;6.65;;;5.40;;
37715;SDS011;23562;50.540;12.504;2023-04-15T01:14:35;6.53;;;5.13;;
37715;SDS011;23562;50.540;12.504;2023-04-15T01:17:00;6.90;;;5.20;;
37715;SDS011;23562;50.540;12.504;2023-04-15T01:19:26;7.07;;;5.18;;
37715;SDS011;23562;50.540;12.504;2023-04-15T01:21:51;5.90;;;4.75;;
37715;SDS011;23562;50.540;12.504;2023-04-15T01:24:17;7.78;;;4.97;;
37715;SDS011;23562;50.540;12.504;2023-04-15T01:26:42;7.28;;;4.97;;
37715;SDS011;23562;50.540;12.504;2023-04-15T01:29:07;7.03;;;5.47;;
37715;SDS011;23562;50.540;12.504;2023-04-15T01:31:33;6.60;;;5.35;;
37715;SDS011;23562;50.540;12.504;2023-04-15T01:33:58;7.85;;;5.88;;
37715;SDS011;23562;50.540;12.504;2023-04-15T01:36:23;10.70;;;6.38;;
37715;SDS011;23562;50.540;12.504;2023-04-15T01:38:49;8.68;;;6.38;;
37715;SDS011;23562;50.540;12.504;2023-04-15T01:41:14;8.93;;;6.75;;
37715;SDS011;23562;50.540;12.504;2023-04-15T01:43:40;9.20;;;7.05;;
37715;SDS011;23562;50.540;12.504;2023-04-15T01:46:05;9.07;;;7.03;;
37715;SDS011;23562;50.540;12.504;2023-04-15T01:48:31;9.90;;;7.38;;
37715;SDS011;23562;50.540;12.504;2023-04-15T01:50:56;10.07;;;7.13;;
37715;SDS011;23562;50.540;12.504;2023-04-15T01:53:22;10.52;;;7.70;;
37715;SDS011;23562;50.540;12.504;2023-04-15T01:55:47;12.68;;;8.32;;
37715;SDS011;23562;50.540;12.504;2023-04-15T01:58:13;10.68;;;7.82;;
37715;SDS011;23562;50.540;12.504;2023-04-15T02:00:38;9.82;;;7.28;;
37715;SDS011;23562;50.540;12.504;2023-04-15T02:03:04;12.00;;;8.32;;
37715;SDS011;23562;50.540;12.504;2023-04-15T02:05:29;12.40;;;7.47;;
37715;SDS011;23562;50.540;12.504;2023-04-15T02:07:54;14.68;;;7.88;;
37715;SDS011;23562;50.540;12.504;2023-04-15T02:10:19;10.07;;;7.40;;
37715;SDS011;23562;50.540;12.504;2023-04-15T02:12:44;9.33;;;6.70;;
37715;SDS011;23562;50.540;12.504;2023-04-15T02:15:09;9.05;;;7.03;;
37715;SDS011;23562;50.540;12.504;2023-04-15T02:17:36;9.30;;;6.53;;
37715;SDS011;23562;50.540;12.504;2023-04-15T02:20:01;8.93;;;6.70;;
37715;SDS011;23562;50.540;12.504;2023-04-15T02:22:28;8.25;;;6.05;;
37715;SDS011;23562;50.540;12.504;2023-04-15T02:24:54;7.22;;;5.63;;
37715;SDS011;23562;50.540;12.504;2023-04-15T02:27:19;7.70;;;5.30;;
37715;SDS011;23562;50.540;12.504;2023-04-15T02:29:44;7.40;;;5.50;;
37715;SDS011;23562;50.540;12.504;2023-04-15T02:32:10;7.30;;;5.10;;
37715;SDS011;23562;50.540;12.504;2023-04-15T02:34:35;7.65;;;5.10;;
37715;SDS011;23562;50.540;12.504;2023-04-15T02:37:03;7.28;;;5.28;;
37715;SDS011;23562;50.540;12.504;2023-04-15T02:39:28;6.25;;;4.38;;
37715;SDS011;23562;50.540;12.504;2023-04-15T02:41:53;6.43;;;4.65;;
37715;SDS011;23562;50.540;12.504;2023-04-15T02:44:19;6.25;;;4.43;;
37715;SDS011;23562;50.540;12.504;2023-04-15T02:46:44;6.97;;;4.73;;
37715;SDS011;23562;50.540;12.504;2023-04-15T02:49:12;7.38;;;5.13;;
37715;SDS011;23562;50.540;12.504;2023-04-15T02:51:38;6.70;;;4.90;;
37715;SDS011;23562;50.540;12.504;2023-04-15T02:54:03;8.70;;;5.57;;
37715;SDS011;23562;50.540;12.504;2023-04-15T02:56:28;8.77;;;5.75;;
37715;SDS011;23562;50.540;12.504;2023-04-15T02:58:54;11.70;;;7.30;;
37715;SDS011;23562;50.540;12.504;2023-04-15T03:01:20;12.05;;;7.25;;
37715;SDS011;23562;50.540;12.504;2023-04-15T03:03:45;12.93;;;8.23;;
37715;SDS011;23562;50.540;12.504;2023-04-15T03:06:11;12.57;;;7.53;;
37715;SDS011;23562;50.540;12.504;2023-04-15T03:08:36;15.30;;;9.27;;
37715;SDS011;23562;50.540;12.504;2023-04-15T03:11:01;13.90;;;8.77;;
37715;SDS011;23562;50.540;12.504;2023-04-15T03:13:26;14.00;;;8.90;;
37715;SDS011;23562;50.540;12.504;2023-04-15T03:15:51;14.80;;;8.68;;
37715;SDS011;23562;50.540;12.504;2023-04-15T03:18:16;14.85;;;9.50;;
37715;SDS011;23562;50.540;12.504;2023-04-15T03:51:16;14.85;;;5.47;;
37715;SDS011;23562;50.540;12.504;2023-04-15T04:06:25;6.00;;;4.20;;
37715;SDS011;23562;50.540;12.504;2023-04-15T04:08:50;6.03;;;4.20;;
37715;SDS011;23562;50.540;12.504;2023-04-15T04:11:15;8.70;;;4.13;;
37715;SDS011;23562;50.540;12.504;2023-04-15T04:13:41;5.60;;;3.88;;
37715;SDS011;23562;50.540;12.504;2023-04-15T04:16:06;5.95;;;4.00;;
37715;SDS011;23562;50.540;12.504;2023-04-15T04:18:31;4.63;;;3.65;;
37715;SDS011;23562;50.540;12.504;2023-04-15T04:20:57;5.15;;;3.78;;
37715;SDS011;23562;50.540;12.504;2023-04-15T04:23:22;5.18;;;3.67;;
37715;SDS011;23562;50.540;12.504;2023-04-15T04:25:47;4.30;;;3.10;;
37715;SDS011;23562;50.540;12.504;2023-04-15T04:28:12;4.38;;;3.22;;
37715;SDS011;23562;50.540;12.504;2023-04-15T04:30:38;5.70;;;3.40;;
37715;SDS011;23562;50.540;12.504;2023-04-15T04:33:03;4.78;;;3.42;;
37715;SDS011;23562;50.540;12.504;2023-04-15T04:35:28;3.37;;;2.90;;
37715;SDS011;23562;50.540;12.504;2023-04-15T04:37:53;4.38;;;3.30;;
37715;SDS011;23562;50.540;12.504;2023-04-15T04:40:18;5.05;;;3.20;;
37715;SDS011;23562;50.540;12.504;2023-04-15T04:42:44;3.92;;;3.10;;
37715;SDS011;23562;50.540;12.504;2023-04-15T04:45:10;5.22;;;3.65;;
37715;SDS011;23562;50.540;12.504;2023-04-15T04:47:35;4.78;;;3.58;;
37715;SDS011;23562;50.540;12.504;2023-04-15T04:50:00;4.93;;;3.50;;
37715;SDS011;23562;50.540;12.504;2023-04-15T04:52:25;5.93;;;3.78;;
37715;SDS011;23562;50.540;12.504;2023-04-15T04:54:50;4.07;;;3.47;;
37715;SDS011;23562;50.540;12.504;2023-04-15T04:57:16;4.63;;;3.53;;
37715;SDS011;23562;50.540;12.504;2023-04-15T04:59:41;3.97;;;3.35;;
37715;SDS011;23562;50.540;12.504;2023-04-15T05:02:06;3.78;;;3.28;;
37715;SDS011;23562;50.540;12.504;2023-04-15T05:04:31;4.10;;;3.00;;
37715;SDS011;23562;50.540;12.504;2023-04-15T05:06:57;3.58;;;3.00;;
37715;SDS011;23562;50.540;12.504;2023-04-15T05:09:23;4.03;;;3.28;;
37715;SDS011;23562;50.540;12.504;2023-04-15T05:11:48;4.53;;;3.30;;
37715;SDS011;23562;50.540;12.504;2023-04-15T05:14:13;4.10;;;3.03;;
37715;SDS011;23562;50.540;12.504;2023-04-15T05:16:38;3.58;;;3.05;;
37715;SDS011;23562;50.540;12.504;2023-04-15T05:19:03;5.78;;;3.13;;
37715;SDS011;23562;50.540;12.504;2023-04-15T05:21:28;3.63;;;3.10;;
37715;SDS011;23562;50.540;12.504;2023-04-15T05:23:55;3.67;;;2.92;;
37715;SDS011;23562;50.540;12.504;2023-04-15T05:26:20;3.20;;;2.70;;
37715;SDS011;23562;50.540;12.504;2023-04-15T05:28:46;3.20;;;2.85;;
37715;SDS011;23562;50.540;12.504;2023-04-15T05:31:11;4.22;;;3.15;;
37715;SDS011;23562;50.540;12.504;2023-04-15T05:33:36;3.40;;;2.83;;
37715;SDS011;23562;50.540;12.504;2023-04-15T05:36:02;3.58;;;2.80;;
37715;SDS011;23562;50.540;12.504;2023-04-15T05:38:27;3.40;;;2.77;;
37715;SDS011;23562;50.540;12.504;2023-04-15T05:40:52;3.63;;;2.83;;
37715;SDS011;23562;50.540;12.504;2023-04-15T05:43:17;3.50;;;2.95;;
37715;SDS011;23562;50.540;12.504;2023-04-15T05:45:42;3.60;;;2.80;;
37715;SDS011;23562;50.540;12.504;2023-04-15T05:48:07;4.10;;;2.87;;
37715;SDS011;23562;50.540;12.504;2023-04-15T05:50:33;4.03;;;3.47;;
37715;SDS011;23562;50.540;12.504;2023-04-15T05:52:58;12.38;;;3.40;;
37715;SDS011;23562;50.540;12.504;2023-04-15T05:55:23;4.65;;;3.35;;
37715;SDS011;23562;50.540;12.504;2023-04-15T05:57:48;4.55;;;3.00;;
37715;SDS011;23562;50.540;12.504;2023-04-15T06:00:13;3.85;;;3.33;;
37715;SDS011;23562;50.540;12.504;2023-04-15T06:02:39;3.58;;;2.75;;
37715;SDS011;23562;50.540;12.504;2023-04-15T06:05:04;3.47;;;2.55;;
37715;SDS011;23562;50.540;12.504;2023-04-15T06:07:33;2.88;;;2.30;;
37715;SDS011;23562;50.540;12.504;2023-04-15T06:09:58;5.82;;;2.60;;
37715;SDS011;23562;50.540;12.504;2023-04-15T06:12:24;4.18;;;2.97;;
37715;SDS011;23562;50.540;12.504;2023-04-15T06:14:49;3.28;;;2.72;;
37715;SDS011;23562;50.540;12.504;2023-04-15T06:17:15;4.93;;;2.55;;
37715;SDS011;23562;50.540;12.504;2023-04-15T06:19:42;3.42;;;2.72;;
37715;SDS011;23562;50.540;12.504;2023-04-15T06:22:07;3.38;;;2.58;;
37715;SDS011;23562;50.540;12.504;2023-04-15T06:24:33;3.03;;;2.30;;
37715;SDS011;23562;50.540;12.504;2023-04-15T06:26:58;3.80;;;2.60;;
37715;SDS011;23562;50.540;12.504;2023-04-15T06:29:31;3.40;;;2.63;;
37715;SDS011;23562;50.540;12.504;2023-04-15T06:31:56;3.00;;;2.40;;
37715;SDS011;23562;50.540;12.504;2023-04-15T06:34:21;3.92;;;2.30;;
37715;SDS011;23562;50.540;12.504;2023-04-15T06:36:46;4.53;;;2.70;;
37715;SDS011;23562;50.540;12.504;2023-04-15T06:39:12;3.83;;;2.92;;
37715;SDS011;23562;50.540;12.504;2023-04-15T06:41:37;3.75;;;3.00;;
37715;SDS011;23562;50.540;12.504;2023-04-15T06:44:02;3.28;;;2.80;;
37715;SDS011;23562;50.540;12.504;2023-04-15T06:46:27;3.60;;;2.55;;
37715;SDS011;23562;50.540;12.504;2023-04-15T06:48:52;3.65;;;2.78;;
37715;SDS011;23562;50.540;12.504;2023-04-15T06:51:18;4.60;;;2.95;;
37715;SDS011;23562;50.540;12.504;2023-04-15T06:53:43;3.38;;;2.58;;
37715;SDS011;23562;50.540;12.504;2023-04-15T06:56:08;3.47;;;2.77;;
37715;SDS011;23562;50.540;12.504;2023-04-15T06:58:33;3.63;;;2.73;;
37715;SDS011;23562;50.540;12.504;2023-04-15T07:00:58;3.13;;;2.60;;
37715;SDS011;23562;50.540;12.504;2023-04-15T07:03:23;2.60;;;2.22;;
37715;SDS011;23562;50.540;12.504;2023-04-15T07:05:49;3.13;;;2.60;;
37715;SDS011;23562;50.540;12.504;2023-04-15T07:08:14;4.67;;;3.13;;
37715;SDS011;23562;50.540;12.504;2023-04-15T07:10:39;4.20;;;2.65;;
37715;SDS011;23562;50.540;12.504;2023-04-15T07:13:04;3.65;;;2.63;;
37715;SDS011;23562;50.540;12.504;2023-04-15T07:15:30;2.92;;;2.55;;
37715;SDS011;23562;50.540;12.504;2023-04-15T07:17:56;3.65;;;2.88;;
37715;SDS011;23562;50.540;12.504;2023-04-15T07:20:21;2.90;;;2.40;;
37715;SDS011;23562;50.540;12.504;2023-04-15T07:22:46;3.05;;;2.72;;
37715;SDS011;23562;50.540;12.504;2023-04-15T07:25:11;3.30;;;2.50;;
37715;SDS011;23562;50.540;12.504;2023-04-15T07:27:36;4.20;;;2.70;;
37715;SDS011;23562;50.540;12.504;2023-04-15T07:30:02;3.73;;;2.40;;
37715;SDS011;23562;50.540;12.504;2023-04-15T07:32:27;3.85;;;2.72;;
37715;SDS011;23562;50.540;12.504;2023-04-15T07:34:52;3.08;;;2.65;;
37715;SDS011;23562;50.540;12.504;2023-04-15T07:37:17;3.25;;;2.50;;
37715;SDS011;23562;50.540;12.504;2023-04-15T07:39:42;3.70;;;2.40;;
37715;SDS011;23562;50.540;12.504;2023-04-15T07:42:08;3.58;;;2.65;;
37715;SDS011;23562;50.540;12.504;2023-04-15T07:44:33;2.75;;;2.40;;
37715;SDS011;23562;50.540;12.504;2023-04-15T07:46:58;2.97;;;2.60;;
37715;SDS011;23562;50.540;12.504;2023-04-15T07:49:23;3.00;;;2.40;;
37715;SDS011;23562;50.540;12.504;2023-04-15T07:51:48;3.90;;;2.10;;
37715;SDS011;23562;50.540;12.504;2023-04-15T07:54:14;2.72;;;2.08;;
37715;SDS011;23562;50.540;12.504;2023-04-15T07:56:40;2.33;;;2.05;;
37715;SDS011;23562;50.540;12.504;2023-04-15T07:59:05;3.77;;;2.40;;
37715;SDS011;23562;50.540;12.504;2023-04-15T08:01:30;4.18;;;2.90;;
37715;SDS011;23562;50.540;12.504;2023-04-15T08:03:56;3.88;;;2.78;;
37715;SDS011;23562;50.540;12.504;2023-04-15T08:06:22;3.75;;;2.80;;
37715;SDS011;23562;50.540;12.504;2023-04-15T08:08:47;3.05;;;2.55;;
37715;SDS011;23562;50.540;12.504;2023-04-15T08:11:12;2.85;;;2.60;;
37715;SDS011;23562;50.540;12.504;2023-04-15T08:13:37;3.35;;;2.55;;
37715;SDS011;23562;50.540;12.504;2023-04-15T08:18:43;3.63;;;2.90;;
37715;SDS011;23562;50.540;12.504;2023-04-15T08:21:08;4.03;;;2.70;;
37715;SDS011;23562;50.540;12.504;2023-04-15T08:23:34;3.13;;;2.50;;
37715;SDS011;23562;50.540;12.504;2023-04-15T08:25:59;1.93;;;1.73;;
37715;SDS011;23562;50.540;12.504;2023-04-15T08:28:24;2.20;;;2.00;;
37715;SDS011;23562;50.540;12.504;2023-04-15T08:33:40;1.92;;;1.83;;
37715;SDS011;23562;50.540;12.504;2023-04-15T08:36:05;3.10;;;2.20;;
37715;SDS011;23562;50.540;12.504;2023-04-15T08:38:31;3.13;;;2.67;;
37715;SDS011;23562;50.540;12.504;2023-04-15T08:40:57;3.28;;;2.72;;
37715;SDS011;23562;50.540;12.504;2023-04-15T08:43:26;2.95;;;2.55;;
37715;SDS011;23562;50.540;12.504;2023-04-15T08:45:52;2.70;;;2.50;;
37715;SDS011;23562;50.540;12.504;2023-04-15T08:48:18;3.10;;;2.60;;
37715;SDS011;23562;50.540;12.504;2023-04-15T08:50:43;2.90;;;2.40;;
37715;SDS011;23562;50.540;12.504;2023-04-15T08:53:09;2.63;;;2.42;;
37715;SDS011;23562;50.540;12.504;2023-04-15T08:55:35;2.80;;;2.60;;
37715;SDS011;23562;50.540;12.504;2023-04-15T08:58:00;4.20;;;3.30;;
37715;SDS011;23562;50.540;12.504;2023-04-15T09:00:26;3.25;;;2.83;;
37715;SDS011;23562;50.540;12.504;2023-04-15T09:02:51;4.28;;;2.50;;
37715;SDS011;23562;50.540;12.504;2023-04-15T09:05:16;2.85;;;2.58;;
37715;SDS011;23562;50.540;12.504;2023-04-15T09:07:41;3.60;;;3.00;;
37715;SDS011;23562;50.540;12.504;2023-04-15T09:10:07;3.00;;;2.70;;
37715;SDS011;23562;50.540;12.504;2023-04-15T09:12:33;2.40;;;2.20;;
37715;SDS011;23562;50.540;12.504;2023-04-15T09:15:12;2.50;;;2.30;;
37715;SDS011;23562;50.540;12.504;2023-04-15T09:20:08;3.20;;;2.88;;
37715;SDS011;23562;50.540;12.504;2023-04-15T09:26:29;2.13;;;1.92;;
37715;SDS011;23562;50.540;12.504;2023-04-15T09:38:55;3.85;;;2.85;;
37715;SDS011;23562;50.540;12.504;2023-04-15T09:42:09;3.13;;;2.83;;
37715;SDS011;23562;50.540;12.504;2023-04-15T10:40:22;4.13;;;3.70;;
37715;SDS011;23562;50.540;12.504;2023-04-15T11:07:11;4.88;;;4.38;;
37715;SDS011;23562;50.540;12.504;2023-04-15T11:35:01;13.55;;;5.63;;
37715;SDS011;23562;50.540;12.504;2023-04-15T11:50:53;6.93;;;6.10;;
37715;SDS011;23562;50.540;12.504;2023-04-15T11:57:00;6.07;;;4.70;;
37715;SDS011;23562;50.540;12.504;2023-04-15T11:59:26;6.22;;;5.10;;
37715;SDS011;23562;50.540;12.504;2023-04-15T12:02:11;8.45;;;6.50;;
37715;SDS011;23562;50.540;12.504;2023-04-15T12:04:37;7.40;;;6.43;;
37715;SDS011;23562;50.540;12.504;2023-04-15T12:07:05;9.10;;;6.90;;
37715;SDS011;23562;50.540;12.504;2023-04-15T12:09:31;8.55;;;6.32;;
37715;SDS011;23562;50.540;12.504;2023-04-15T12:12:01;7.03;;;6.32;;
37715;SDS011;23562;50.540;12.504;2023-04-15T12:14:27;7.33;;;5.90;;
37715;SDS011;23562;50.540;12.504;2023-04-15T12:16:59;5.88;;;5.20;;
37715;SDS011;23562;50.540;12.504;2023-04-15T12:19:26;6.75;;;5.35;;
37715;SDS011;23562;50.540;12.504;2023-04-15T12:21:52;8.75;;;6.53;;
37715;SDS011;23562;50.540;12.504;2023-04-15T12:24:21;8.32;;;5.80;;
37715;SDS011;23562;50.540;12.504;2023-04-15T12:26:50;7.97;;;5.95;;
37715;SDS011;23562;50.540;12.504;2023-04-15T12:29:17;8.15;;;5.70;;
37715;SDS011;23562;50.540;12.504;2023-04-15T12:32:24;7.10;;;5.68;;
37715;SDS011;23562;50.540;12.504;2023-04-15T12:34:32;9.95;;;6.97;;
37715;SDS011;23562;50.540;12.504;2023-04-15T12:36:58;15.57;;;9.13;;
37715;SDS011;23562;50.540;12.504;2023-04-15T12:39:24;12.43;;;8.15;;
37715;SDS011;23562;50.540;12.504;2023-04-15T12:41:50;9.55;;;6.32;;
37715;SDS011;23562;50.540;12.504;2023-04-15T12:44:15;14.25;;;10.27;;
37715;SDS011;23562;50.540;12.504;2023-04-15T12:46:40;6.65;;;5.25;;
37715;SDS011;23562;50.540;12.504;2023-04-15T12:49:06;8.55;;;5.40;;
37715;SDS011;23562;50.540;12.504;2023-04-15T12:51:31;8.43;;;6.38;;
37715;SDS011;23562;50.540;12.504;2023-04-15T12:53:57;8.55;;;6.90;;
37715;SDS011;23562;50.540;12.504;2023-04-15T12:56:22;9.18;;;7.05;;
37715;SDS011;23562;50.540;12.504;2023-04-15T12:58:48;7.55;;;5.78;;
37715;SDS011;23562;50.540;12.504;2023-04-15T13:01:13;12.07;;;6.37;;
37715;SDS011;23562;50.540;12.504;2023-04-15T13:03:38;8.67;;;6.37;;
37715;SDS011;23562;50.540;12.504;2023-04-15T13:06:03;12.33;;;6.47;;
37715;SDS011;23562;50.540;12.504;2023-04-15T13:08:29;7.30;;;5.55;;
37715;SDS011;23562;50.540;12.504;2023-04-15T13:10:54;11.43;;;6.55;;
37715;SDS011;23562;50.540;12.504;2023-04-15T13:13:19;7.47;;;6.07;;
37715;SDS011;23562;50.540;12.504;2023-04-15T13:15:44;7.53;;;5.47;;
37715;SDS011;23562;50.540;12.504;2023-04-15T13:18:10;8.38;;;6.22;;
37715;SDS011;23562;50.540;12.504;2023-04-15T13:20:35;6.68;;;5.38;;
37715;SDS011;23562;50.540;12.504;2023-04-15T13:23:00;6.43;;;5.28;;
37715;SDS011;23562;50.540;12.504;2023-04-15T13:25:25;6.90;;;6.17;;
37715;SDS011;23562;50.540;12.504;2023-04-15T13:27:51;9.82;;;6.80;;
37715;SDS011;23562;50.540;12.504;2023-04-15T13:30:16;7.47;;;6.05;;
37715;SDS011;23562;50.540;12.504;2023-04-15T13:32:42;8.85;;;6.28;;
37715;SDS011;23562;50.540;12.504;2023-04-15T13:35:07;11.88;;;6.72;;
37715;SDS011;23562;50.540;12.504;2023-04-15T13:37:32;19.48;;;6.90;;
37715;SDS011;23562;50.540;12.504;2023-04-15T13:39:58;9.25;;;6.75;;
37715;SDS011;23562;50.540;12.504;2023-04-15T13:42:23;7.27;;;6.23;;
37715;SDS011;23562;50.540;12.504;2023-04-15T13:44:48;6.13;;;5.53;;
37715;SDS011;23562;50.540;12.504;2023-04-15T13:47:14;8.13;;;6.90;;
37715;SDS011;23562;50.540;12.504;2023-04-15T13:49:40;7.53;;;6.70;;
37715;SDS011;23562;50.540;12.504;2023-04-15T13:52:05;8.80;;;7.82;;
37715;SDS011;23562;50.540;12.504;2023-04-15T13:54:30;6.10;;;5.50;;
37715;SDS011;23562;50.540;12.504;2023-04-15T13:56:55;7.85;;;5.72;;
37715;SDS011;23562;50.540;12.504;2023-04-15T13:59:21;6.95;;;5.50;;
37715;SDS011;23562;50.540;12.504;2023-04-15T14:01:47;6.67;;;5.97;;
37715;SDS011;23562;50.540;12.504;2023-04-15T14:04:12;8.80;;;7.37;;
37715;SDS011;23562;50.540;12.504;2023-04-15T14:06:37;8.65;;;7.32;;
37715;SDS011;23562;50.540;12.504;2023-04-15T14:09:02;9.13;;;7.75;;
37715;SDS011;23562;50.540;12.504;2023-04-15T14:11:27;23.15;;;15.32;;
37715;SDS011;23562;50.540;12.504;2023-04-15T14:13:53;29.50;;;19.45;;
37715;SDS011;23562;50.540;12.504;2023-04-15T14:16:19;18.43;;;12.83;;
37715;SDS011;23562;50.540;12.504;2023-04-15T14:18:49;15.80;;;11.80;;
37715;SDS011;23562;50.540;12.504;2023-04-15T14:21:14;20.58;;;14.50;;
37715;SDS011;23562;50.540;12.504;2023-04-15T14:23:39;19.53;;;12.03;;
37715;SDS011;23562;50.540;12.504;2023-04-15T14:26:04;13.48;;;9.95;;
37715;SDS011;23562;50.540;12.504;2023-04-15T14:28:30;13.75;;;9.73;;
37715;SDS011;23562;50.540;12.504;2023-04-15T14:30:56;10.80;;;7.60;;
37715;SDS011;23562;50.540;12.504;2023-04-15T14:33:21;8.20;;;6.63;;
37715;SDS011;23562;50.540;12.504;2023-04-15T14:35:46;7.75;;;6.45;;
37715;SDS011;23562;50.540;12.504;2023-04-15T14:38:12;6.82;;;5.53;;
37715;SDS011;23562;50.540;12.504;2023-04-15T14:40:37;7.00;;;5.60;;
37715;SDS011;23562;50.540;12.504;2023-04-15T14:43:02;6.00;;;5.20;;
37715;SDS011;23562;50.540;12.504;2023-04-15T14:45:27;6.32;;;5.00;;
37715;SDS011;23562;50.540;12.504;2023-04-15T14:47:53;7.07;;;5.57;;
37715;SDS011;23562;50.540;12.504;2023-04-15T14:50:19;6.05;;;5.15;;
37715;SDS011;23562;50.540;12.504;2023-04-15T14:52:44;6.63;;;5.93;;
37715;SDS011;23562;50.540;12.504;2023-04-15T14:55:09;13.50;;;6.28;;
37715;SDS011;23562;50.540;12.504;2023-04-15T14:57:36;7.00;;;5.78;;
37715;SDS011;23562;50.540;12.504;2023-04-15T15:00:02;8.32;;;6.95;;
37715;SDS011;23562;50.540;12.504;2023-04-15T15:02:27;7.43;;;5.75;;
37715;SDS011;23562;50.540;12.504;2023-04-15T15:04:52;10.85;;;7.10;;
37715;SDS011;23562;50.540;12.504;2023-04-15T15:07:18;10.25;;;6.68;;
37715;SDS011;23562;50.540;12.504;2023-04-15T15:09:43;9.05;;;7.93;;
37715;SDS011;23562;50.540;12.504;2023-04-15T15:12:08;8.48;;;7.00;;
37715;SDS011;23562;50.540;12.504;2023-04-15T15:14:33;8.20;;;6.35;;
37715;SDS011;23562;50.540;12.504;2023-04-15T15:16:58;7.78;;;5.70;;
37715;SDS011;23562;50.540;12.504;2023-04-15T15:19:23;9.43;;;6.97;;
37715;SDS011;23562;50.540;12.504;2023-04-15T15:21:48;30.43;;;17.23;;
37715;SDS011;23562;50.540;12.504;2023-04-15T15:24:14;22.60;;;13.07;;
37715;SDS011;23562;50.540;12.504;2023-04-15T15:26:39;54.28;;;26.58;;
37715;SDS011;23562;50.540;12.504;2023-04-15T15:29:04;59.22;;;31.52;;
37715;SDS011;23562;50.540;12.504;2023-04-15T15:31:30;52.22;;;26.88;;
37715;SDS011;23562;50.540;12.504;2023-04-15T15:33:55;22.58;;;12.75;;
37715;SDS011;23562;50.540;12.504;2023-04-15T15:36:20;26.48;;;12.30;;
37715;SDS011;23562;50.540;12.504;2023-04-15T15:38:45;22.30;;;12.03;;
37715;SDS011;23562;50.540;12.504;2023-04-15T15:41:16;45.38;;;20.50;;
37715;SDS011;23562;50.540;12.504;2023-04-15T15:43:41;35.50;;;17.52;;
37715;SDS011;23562;50.540;12.504;2023-04-15T15:46:07;21.95;;;12.02;;
37715;SDS011;23562;50.540;12.504;2023-04-15T15:48:32;47.72;;;22.55;;
37715;SDS011;23562;50.540;12.504;2023-04-15T15:50:57;51.60;;;24.63;;
37715;SDS011;23562;50.540;12.504;2023-04-15T15:53:22;31.73;;;16.40;;
37715;SDS011;23562;50.540;12.504;2023-04-15T15:55:49;15.50;;;8.93;;
37715;SDS011;23562;50.540;12.504;2023-04-15T15:58:14;15.63;;;9.57;;
37715;SDS011;23562;50.540;12.504;2023-04-15T16:00:40;16.08;;;9.88;;
37715;SDS011;23562;50.540;12.504;2023-04-15T16:03:06;16.10;;;10.48;;
37715;SDS011;23562;50.540;12.504;2023-04-15T16:05:31;21.90;;;12.05;;
37715;SDS011;23562;50.540;12.504;2023-04-15T16:07:56;16.03;;;10.60;;
37715;SDS011;23562;50.540;12.504;2023-04-15T16:10:21;29.73;;;14.63;;
37715;SDS011;23562;50.540;12.504;2023-04-15T16:12:46;17.38;;;9.65;;
37715;SDS011;23562;50.540;12.504;2023-04-15T16:15:11;17.50;;;11.50;;
37715;SDS011;23562;50.540;12.504;2023-04-15T16:17:37;24.00;;;12.90;;
37715;SDS011;23562;50.540;12.504;2023-04-15T16:20:02;15.33;;;8.90;;
37715;SDS011;23562;50.540;12.504;2023-04-15T16:22:29;11.63;;;7.82;;
37715;SDS011;23562;50.540;12.504;2023-04-15T16:24:54;28.10;;;13.43;;
37715;SDS011;23562;50.540;12.504;2023-04-15T16:27:19;18.92;;;13.55;;
37715;SDS011;23562;50.540;12.504;2023-04-15T16:29:44;15.43;;;10.57;;
37715;SDS011;23562;50.540;12.504;2023-04-15T16:32:09;15.65;;;10.95;;
37715;SDS011;23562;50.540;12.504;2023-04-15T16:34:35;15.00;;;10.10;;
37715;SDS011;23562;50.540;12.504;2023-04-15T16:37:02;15.60;;;10.30;;
37715;SDS011;23562;50.540;12.504;2023-04-15T16:39:28;18.40;;;14.70;;
37715;SDS011;23562;50.540;12.504;2023-04-15T16:41:53;17.80;;;12.18;;
37715;SDS011;23562;50.540;12.504;2023-04-15T16:44:18;16.08;;;10.82;;
37715;SDS011;23562;50.540;12.504;2023-04-15T16:46:43;13.50;;;8.27;;
37715;SDS011;23562;50.540;12.504;2023-04-15T16:49:08;11.33;;;8.20;;
37715;SDS011;23562;50.540;12.504;2023-04-15T16:51:33;11.73;;;7.18;;
37715;SDS011;23562;50.540;12.504;2023-04-15T16:53:59;9.02;;;6.35;;
37715;SDS011;23562;50.540;12.504;2023-04-15T16:56:24;12.07;;;6.97;;
37715;SDS011;23562;50.540;12.504;2023-04-15T16:58:49;12.02;;;7.53;;
37715;SDS011;23562;50.540;12.504;2023-04-15T17:01:14;15.30;;;9.88;;
37715;SDS011;23562;50.540;12.504;2023-04-15T17:03:40;21.43;;;13.00;;
37715;SDS011;23562;50.540;12.504;2023-04-15T17:06:05;44.87;;;22.87;;
37715;SDS011;23562;50.540;12.504;2023-04-15T17:08:30;61.15;;;29.92;;
37715;SDS011;23562;50.540;12.504;2023-04-15T17:10:56;33.85;;;17.33;;
37715;SDS011;23562;50.540;12.504;2023-04-15T17:13:21;17.08;;;9.40;;
37715;SDS011;23562;50.540;12.504;2023-04-15T17:15:46;12.02;;;7.43;;
37715;SDS011;23562;50.540;12.504;2023-04-15T17:18:26;14.37;;;7.47;;
37715;SDS011;23562;50.540;12.504;2023-04-15T17:20:51;13.10;;;7.80;;
37715;SDS011;23562;50.540;12.504;2023-04-15T17:23:17;13.32;;;7.95;;
37715;SDS011;23562;50.540;12.504;2023-04-15T17:25:42;21.90;;;14.18;;
37715;SDS011;23562;50.540;12.504;2023-04-15T17:28:07;24.70;;;17.05;;
37715;SDS011;23562;50.540;12.504;2023-04-15T17:30:32;22.80;;;14.65;;
37715;SDS011;23562;50.540;12.504;2023-04-15T17:32:57;19.43;;;10.83;;
37715;SDS011;23562;50.540;12.504;2023-04-15T17:35:22;18.42;;;9.88;;
37715;SDS011;23562;50.540;12.504;2023-04-15T17:37:49;13.63;;;8.02;;
37715;SDS011;23562;50.540;12.504;2023-04-15T17:40:15;12.30;;;7.45;;
37715;SDS011;23562;50.540;12.504;2023-04-15T17:42:40;12.65;;;7.40;;